more information


Thunder radar more information blitzortung!


Rain radar more information rain snow radar


Visit our other weather sites:

Template documentation
and downloads

And another site


Nearby METAR Reports

   
EHVK - Volkel Rnlafb, Netherlands
Distance from station: SW 11 mi
Updated: Nov 16 2019 10:25 pm
Few Clouds  
Few Clouds  
   Wind: SSE 2 mph
Wind: SSE 2 mph
Temperature: 37°F
Dew Point: 34°F
Humidity: 87%
Barometer: 29.85 inHg
Clouds: Few Clouds
Visibility: More than 6 mi
Cloud details: Few Clouds 1128 m
EHVK 170325Z AUTO 15002KT 9999 FEW037 03/01 Q1011 BLU
EDLV - Niederrhein, Germany
Distance from station: SE 15 mi
Updated: Nov 16 2019 5:50 pm
NOT Current
Mostly Cloudy  
Mostly Cloudy  
   Wind: SSE 6 mph
Wind: SSE 6 mph
Temperature: 41°F
Wind Chill: 37°F
Dew Point: 36°F
Humidity: 81%
Barometer: 29.85 inHg
Clouds: Mostly Cloudy
Visibility: More than 6 mi
Cloud details: Mostly Cloudy 1036 m
EDLV 162250Z 16005KT 9999 BKN034 05/02 Q1011
EHDL - Deelen Rnlafb, Netherlands
Distance from station: N 22 mi
Updated: Nov 16 2019 10:25 pm
Mostly Cloudy  
Mostly Cloudy  
   Wind: SSE 6 mph
Wind: SSE 6 mph
Temperature: 39°F
Wind Chill: 36°F
Dew Point: 36°F
Humidity: 87%
Barometer: 29.85 inHg
Clouds: Mostly Cloudy
Visibility: More than 6 mi
Cloud details: Mostly Cloudy 1097 m
EHDL 170325Z AUTO 16005KT 080V180 9999 BKN036 04/02 Q1011 BLU
EHEH - Eindhoven Rnlafb, Netherlands
Distance from station: SW 30 mi
Updated: Nov 16 2019 10:25 pm
Clear  
Clear  
   Wind: varies 1 mph
Wind: varies 1 mph
Temperature: 37°F
Dew Point: 36°F
Humidity: 93%
Barometer: 29.85 inHg
Clouds: Clear
Visibility: More than 6 mi
Cloud details: Clear
EHEH 170325Z AUTO VRB01KT 9999 NCD 03/02 Q1011 BLU
EHGR - Gilze-Rijen Rnla, Netherlands
Distance from station: WSW 43 mi
Updated: Nov 16 2019 10:25 pm
Mostly Cloudy  
Mostly Cloudy  
   Wind: SE 4 mph
Wind: SE 4 mph
Temperature: 41°F
Wind Chill: 39°F
Dew Point: 37°F
Humidity: 87%
Barometer: 29.85 inHg
Clouds: Mostly Cloudy
Visibility: More than 6 mi
Cloud details: Mostly Cloudy 1097 m
EHGR 170325Z AUTO 13003KT 9999 BKN036 05/03 Q1011 BLU
EBBL - Kleine-Brogel(Ba, Belgium
Distance from station: SSW 44 mi
Updated: Nov 16 2019 10:25 pm
Clear  
Clear  
   Wind: varies 1 mph
Wind: varies 1 mph
Temperature: 32°F
Dew Point: 32°F
Humidity: 100%
Barometer: 29.85 inHg
Clouds: Clear
Visibility: 5 mi
Cloud details: Clear
EBBL 170325Z AUTO VRB01KT 8000 NCD 00/00 Q1011 BLU

Script developed by  Saratoga-weather.org Adapted for the template by  Weerstation Leuven

You find our weather info also at:

WeatherCloud

Citizen Weather Observer Program (CWOP)

Equipment we use:

Weather-station
Davis VP2

Weather-program
Weather Display

Davis VP2

Weather Display